BGGH

Godthaab / Nuuk Airport

Nuuk, Greenland

BGGH 190850Z AUTO 17033G47KT 1200NDV -SN BKN011/// 06/06 Q1007

Observed Flight Rules
Aug-19 @ 08:50 UTC (22 minutes ago)
Unavailable
Wind Clouds Conditions
170° at 33 knots
 Gusting to 47 knots
  • Broken at 1,100' AGL
  • Light Snow
Temperatures Readings
Current 6°C / 43°F
Dewpoint 6°C / 43°F
Humidity 100%
Altimeter 29.73" Hg
Pressure 1007 hPa
Elevation 70
Observed Flight Rules
Aug-19 @ 08:50 UTC
(22 minutes ago)
UNK
Wind
170° at 33 knots
 Gusting to 47 knots
Clouds Conditions
  • Broken at 1,100' AGL
  • Light Snow
Temperature Dewpoint
6°C / 43°F 6°C / 43°F
Humidity Altimeter Pressure
100% 29.73" Hg 1007 hPa